Aeroporto :
LOGIN :

Iscrizione | Disclaimer

   EN    FR    IT 

 










Sommario :    VFR   VFR Marginale   IFR   IFR Intensivo   IFR Molto Intensivo
Visibilità : 
Base nubi : 
>= 8 km
>= 3000ft
5 / 8 km
1000 / 3000 ft
1500m / 5 km
500 / 1000 ft
800 / 1500m
200 / 500 ft
< 800m
< 200 ft
Simboli :   Temporali  Nebbia  Neve Forte  Precipitazioni Forti  Vento > 20 kt
SIGMETs :   Varie  Temporali  Ghiacco  Turbolenza  Onda orograficha  Ceneri Vulcaniche






- Altitudine del aeroporto : 239 ft
- Codice IATA : VRN


LIPX - Villafranca Int. Verona

ULTIMO METAR :
  • 212320Z 10003KT 070V130 9999 FEW060 BKN080 08/04 Q1015

METARs OBSOLETI :
  • 212250Z 08003KT 9999 BKN080 08/04 Q1015
  • 212220Z 12002KT 9999 BKN090 08/04 Q1015
  • 212150Z 04001KT 9999 FEW060 BKN090 08/04 Q1015
  • 212120Z VRB02KT 9999 FEW070 08/04 Q1015
  • 212050Z VRB02KT 9999 SCT075 09/04 Q1015
  • 212020Z VRB01KT 9999 SCT075 08/04 Q1015
  • 211950Z 14004KT 110V170 9999 SCT070 09/03 Q1014
  • 211920Z 13003KT 080V190 9999 FEW040 BKN080 09/04 Q1014
  • 211850Z 16006KT 130V200 9999 VCSH SCT080 10/03 Q1014

TAF TAF LIPX
Valido dal 22 a 00 ore il 23 a 00 ore UTC


212300Z 2200/2224 07012KT 6000 RA BKN030
BECMG 2204/2206 07018G28KT
PROB40
TEMPO 2216/2220 TSRA



MetMap, La meteo Aeronautica in un colpo d'occhio ! - Copyright ORBIFLY Dicembre 2007 - Disclaimer

ORBIFLY MET'MAP TEAM :

Programmazione e sviluppo : Alexandra Zaïnal
Concezione : Baudouin d'Aumeries
Supporto tecnico e logistico : Manuel Goepfert
Aiuto : Marc-Olivier Méhu
Aiuto per la traduzione : Arnaldo La Scala




FONTI E CREDITI :

   NOAA